Terminal Aerodrome Forecast
Issued by NWS

Home | Current Version | Previous Version | Graphics & Text | Print | Product List | Glossary On
Versions: 1 2 3 4 5 6 7 8 9 10 11 12 13 14 15 16 17 18 19 20 21 22 23 24
000
FTUS43 KGRB 200400 AAB
TAFCWA
TAF AMD
KCWA 200411Z 2004/2024 20003KT 6SM BR SCT010 BKN025
      TEMPO 2005/2008 BKN010
     FM200800 17003KT 4SM BR OVC008
     FM201700 16005KT 6SM BR OVC012
      AMD LTD TO CLD VIS AND WIND TIL 201100=

USA.gov is the U.S. government's official web portal to all federal, state and local government web resources and services.